sensor_id;sensor_type;location;lat;lon;timestamp;P1;durP1;ratioP1;P2;durP2;ratioP2
61617;SDS011;47518;51.776;9.370;2023-06-14T00:00:38;5.07;;;4.55;;
61617;SDS011;47518;51.776;9.370;2023-06-14T00:03:06;8.60;;;4.80;;
61617;SDS011;47518;51.776;9.370;2023-06-14T00:05:35;5.53;;;4.40;;
61617;SDS011;47518;51.776;9.370;2023-06-14T00:08:06;5.90;;;5.10;;
61617;SDS011;47518;51.776;9.370;2023-06-14T00:10:33;4.78;;;4.30;;
61617;SDS011;47518;51.776;9.370;2023-06-14T00:13:00;5.20;;;4.80;;
61617;SDS011;47518;51.776;9.370;2023-06-14T00:15:26;5.28;;;4.78;;
61617;SDS011;47518;51.776;9.370;2023-06-14T00:17:53;7.82;;;4.93;;
61617;SDS011;47518;51.776;9.370;2023-06-14T00:20:19;7.82;;;5.00;;
61617;SDS011;47518;51.776;9.370;2023-06-14T00:22:45;7.63;;;5.00;;
61617;SDS011;47518;51.776;9.370;2023-06-14T00:25:13;5.72;;;4.90;;
61617;SDS011;47518;51.776;9.370;2023-06-14T00:27:39;5.80;;;5.00;;
61617;SDS011;47518;51.776;9.370;2023-06-14T00:30:05;5.40;;;4.90;;
61617;SDS011;47518;51.776;9.370;2023-06-14T00:32:30;5.20;;;4.70;;
61617;SDS011;47518;51.776;9.370;2023-06-14T00:34:56;5.60;;;4.95;;
61617;SDS011;47518;51.776;9.370;2023-06-14T00:37:21;6.57;;;5.00;;
61617;SDS011;47518;51.776;9.370;2023-06-14T00:39:46;8.02;;;5.00;;
61617;SDS011;47518;51.776;9.370;2023-06-14T00:42:22;6.10;;;4.65;;
61617;SDS011;47518;51.776;9.370;2023-06-14T00:44:48;8.68;;;4.93;;
61617;SDS011;47518;51.776;9.370;2023-06-14T00:47:13;5.10;;;4.60;;
61617;SDS011;47518;51.776;9.370;2023-06-14T00:49:38;5.30;;;4.80;;
61617;SDS011;47518;51.776;9.370;2023-06-14T00:52:04;8.40;;;4.80;;
61617;SDS011;47518;51.776;9.370;2023-06-14T00:54:36;6.38;;;5.10;;
61617;SDS011;47518;51.776;9.370;2023-06-14T00:57:02;5.63;;;4.97;;
61617;SDS011;47518;51.776;9.370;2023-06-14T00:59:27;8.52;;;4.70;;
61617;SDS011;47518;51.776;9.370;2023-06-14T01:01:52;5.32;;;4.68;;
61617;SDS011;47518;51.776;9.370;2023-06-14T01:04:28;6.90;;;5.05;;
61617;SDS011;47518;51.776;9.370;2023-06-14T01:07:02;5.50;;;5.00;;
61617;SDS011;47518;51.776;9.370;2023-06-14T01:09:48;7.50;;;5.10;;
61617;SDS011;47518;51.776;9.370;2023-06-14T01:12:24;4.93;;;4.53;;
61617;SDS011;47518;51.776;9.370;2023-06-14T01:15:00;5.80;;;5.20;;
61617;SDS011;47518;51.776;9.370;2023-06-14T01:17:27;6.38;;;4.85;;
61617;SDS011;47518;51.776;9.370;2023-06-14T01:19:58;5.30;;;4.90;;
61617;SDS011;47518;51.776;9.370;2023-06-14T01:22:25;7.18;;;4.80;;
61617;SDS011;47518;51.776;9.370;2023-06-14T01:24:51;6.90;;;4.90;;
61617;SDS011;47518;51.776;9.370;2023-06-14T01:27:20;5.60;;;5.10;;
61617;SDS011;47518;51.776;9.370;2023-06-14T01:29:50;7.07;;;5.30;;
61617;SDS011;47518;51.776;9.370;2023-06-14T01:32:21;5.90;;;5.30;;
61617;SDS011;47518;51.776;9.370;2023-06-14T01:34:47;8.02;;;4.90;;
61617;SDS011;47518;51.776;9.370;2023-06-14T01:37:13;5.65;;;5.25;;
61617;SDS011;47518;51.776;9.370;2023-06-14T01:39:44;5.80;;;5.30;;
61617;SDS011;47518;51.776;9.370;2023-06-14T01:42:12;6.47;;;5.25;;
61617;SDS011;47518;51.776;9.370;2023-06-14T01:44:38;5.57;;;5.07;;
61617;SDS011;47518;51.776;9.370;2023-06-14T01:47:05;5.55;;;5.03;;
61617;SDS011;47518;51.776;9.370;2023-06-14T01:49:33;6.07;;;4.95;;
61617;SDS011;47518;51.776;9.370;2023-06-14T01:52:00;6.85;;;5.35;;
61617;SDS011;47518;51.776;9.370;2023-06-14T01:54:28;5.20;;;4.70;;
61617;SDS011;47518;51.776;9.370;2023-06-14T01:56:54;6.20;;;5.00;;
61617;SDS011;47518;51.776;9.370;2023-06-14T01:59:20;5.43;;;4.90;;
61617;SDS011;47518;51.776;9.370;2023-06-14T02:01:48;6.57;;;5.10;;
61617;SDS011;47518;51.776;9.370;2023-06-14T02:06:59;5.70;;;5.00;;
61617;SDS011;47518;51.776;9.370;2023-06-14T02:09:25;6.55;;;5.38;;
61617;SDS011;47518;51.776;9.370;2023-06-14T02:11:50;5.40;;;4.90;;
61617;SDS011;47518;51.776;9.370;2023-06-14T02:14:16;5.88;;;5.30;;
61617;SDS011;47518;51.776;9.370;2023-06-14T02:16:42;5.47;;;4.90;;
61617;SDS011;47518;51.776;9.370;2023-06-14T02:19:18;6.47;;;5.25;;
61617;SDS011;47518;51.776;9.370;2023-06-14T02:21:47;6.03;;;5.45;;
61617;SDS011;47518;51.776;9.370;2023-06-14T02:24:16;6.05;;;5.45;;
61617;SDS011;47518;51.776;9.370;2023-06-14T02:26:41;5.80;;;5.20;;
61617;SDS011;47518;51.776;9.370;2023-06-14T02:29:07;7.72;;;5.40;;
61617;SDS011;47518;51.776;9.370;2023-06-14T02:31:35;5.57;;;5.07;;
61617;SDS011;47518;51.776;9.370;2023-06-14T02:34:01;6.97;;;5.07;;
61617;SDS011;47518;51.776;9.370;2023-06-14T02:36:27;5.80;;;5.20;;
61617;SDS011;47518;51.776;9.370;2023-06-14T02:38:55;7.15;;;5.30;;
61617;SDS011;47518;51.776;9.370;2023-06-14T02:41:22;5.25;;;4.85;;
61617;SDS011;47518;51.776;9.370;2023-06-14T02:43:49;7.65;;;5.07;;
61617;SDS011;47518;51.776;9.370;2023-06-14T02:46:14;5.70;;;5.20;;
61617;SDS011;47518;51.776;9.370;2023-06-14T02:48:40;5.72;;;5.20;;
61617;SDS011;47518;51.776;9.370;2023-06-14T02:51:08;6.18;;;5.00;;
61617;SDS011;47518;51.776;9.370;2023-06-14T02:53:34;6.28;;;5.60;;
61617;SDS011;47518;51.776;9.370;2023-06-14T02:56:01;5.93;;;5.28;;
61617;SDS011;47518;51.776;9.370;2023-06-14T02:58:28;6.25;;;5.35;;
61617;SDS011;47518;51.776;9.370;2023-06-14T03:00:54;5.55;;;5.05;;
61617;SDS011;47518;51.776;9.370;2023-06-14T03:03:19;8.10;;;5.10;;
61617;SDS011;47518;51.776;9.370;2023-06-14T03:05:46;7.75;;;5.00;;
61617;SDS011;47518;51.776;9.370;2023-06-14T03:08:15;6.65;;;5.20;;
61617;SDS011;47518;51.776;9.370;2023-06-14T03:10:45;6.45;;;5.30;;
61617;SDS011;47518;51.776;9.370;2023-06-14T03:13:13;8.95;;;5.22;;
61617;SDS011;47518;51.776;9.370;2023-06-14T03:15:46;6.68;;;5.45;;
61617;SDS011;47518;51.776;9.370;2023-06-14T03:18:12;6.00;;;5.05;;
61617;SDS011;47518;51.776;9.370;2023-06-14T03:20:40;6.65;;;4.97;;
61617;SDS011;47518;51.776;9.370;2023-06-14T03:23:06;8.80;;;5.47;;
61617;SDS011;47518;51.776;9.370;2023-06-14T03:25:31;7.38;;;5.50;;
61617;SDS011;47518;51.776;9.370;2023-06-14T03:27:58;6.32;;;5.03;;
61617;SDS011;47518;51.776;9.370;2023-06-14T03:30:23;5.50;;;5.00;;
61617;SDS011;47518;51.776;9.370;2023-06-14T03:32:51;6.13;;;5.43;;
61617;SDS011;47518;51.776;9.370;2023-06-14T03:35:17;5.45;;;5.00;;
61617;SDS011;47518;51.776;9.370;2023-06-14T03:37:44;5.68;;;5.07;;
61617;SDS011;47518;51.776;9.370;2023-06-14T03:40:10;6.20;;;5.45;;
61617;SDS011;47518;51.776;9.370;2023-06-14T03:42:37;6.25;;;5.22;;
61617;SDS011;47518;51.776;9.370;2023-06-14T03:45:03;6.47;;;5.40;;
61617;SDS011;47518;51.776;9.370;2023-06-14T03:47:29;5.82;;;5.32;;
61617;SDS011;47518;51.776;9.370;2023-06-14T03:49:54;7.18;;;5.15;;
61617;SDS011;47518;51.776;9.370;2023-06-14T03:52:20;6.82;;;5.10;;
61617;SDS011;47518;51.776;9.370;2023-06-14T03:54:47;8.27;;;5.32;;
61617;SDS011;47518;51.776;9.370;2023-06-14T03:57:12;10.32;;;5.00;;
61617;SDS011;47518;51.776;9.370;2023-06-14T03:59:38;5.35;;;4.85;;
61617;SDS011;47518;51.776;9.370;2023-06-14T04:02:06;5.28;;;4.75;;
61617;SDS011;47518;51.776;9.370;2023-06-14T04:04:35;5.82;;;5.30;;
61617;SDS011;47518;51.776;9.370;2023-06-14T04:07:01;8.60;;;5.20;;
61617;SDS011;47518;51.776;9.370;2023-06-14T04:09:28;7.22;;;5.00;;
61617;SDS011;47518;51.776;9.370;2023-06-14T04:11:57;8.13;;;4.90;;
61617;SDS011;47518;51.776;9.370;2023-06-14T04:16:59;5.82;;;4.93;;
61617;SDS011;47518;51.776;9.370;2023-06-14T04:19:25;9.75;;;5.13;;
61617;SDS011;47518;51.776;9.370;2023-06-14T04:21:53;6.38;;;4.78;;
61617;SDS011;47518;51.776;9.370;2023-06-14T04:24:19;5.35;;;4.85;;
61617;SDS011;47518;51.776;9.370;2023-06-14T04:26:45;7.57;;;5.20;;
61617;SDS011;47518;51.776;9.370;2023-06-14T04:29:14;10.88;;;5.63;;
61617;SDS011;47518;51.776;9.370;2023-06-14T04:31:41;8.55;;;5.55;;
61617;SDS011;47518;51.776;9.370;2023-06-14T04:34:07;7.97;;;5.25;;
61617;SDS011;47518;51.776;9.370;2023-06-14T04:36:33;9.02;;;5.05;;
61617;SDS011;47518;51.776;9.370;2023-06-14T04:39:03;9.68;;;5.20;;
61617;SDS011;47518;51.776;9.370;2023-06-14T04:41:38;6.45;;;5.00;;
61617;SDS011;47518;51.776;9.370;2023-06-14T04:44:03;8.18;;;4.80;;
61617;SDS011;47518;51.776;9.370;2023-06-14T04:46:28;9.10;;;5.00;;
61617;SDS011;47518;51.776;9.370;2023-06-14T04:48:55;5.38;;;4.88;;
61617;SDS011;47518;51.776;9.370;2023-06-14T04:51:20;6.82;;;4.50;;
61617;SDS011;47518;51.776;9.370;2023-06-14T04:53:47;6.63;;;4.40;;
61617;SDS011;47518;51.776;9.370;2023-06-14T04:56:14;4.93;;;4.13;;
61617;SDS011;47518;51.776;9.370;2023-06-14T04:58:40;6.80;;;4.20;;
61617;SDS011;47518;51.776;9.370;2023-06-14T05:01:05;4.93;;;3.90;;
61617;SDS011;47518;51.776;9.370;2023-06-14T05:03:35;5.30;;;3.83;;
61617;SDS011;47518;51.776;9.370;2023-06-14T05:06:16;5.28;;;3.90;;
61617;SDS011;47518;51.776;9.370;2023-06-14T05:08:42;4.38;;;3.97;;
61617;SDS011;47518;51.776;9.370;2023-06-14T05:11:07;6.05;;;3.83;;
61617;SDS011;47518;51.776;9.370;2023-06-14T05:13:33;4.43;;;3.90;;
61617;SDS011;47518;51.776;9.370;2023-06-14T05:15:59;4.07;;;3.70;;
61617;SDS011;47518;51.776;9.370;2023-06-14T05:18:25;6.10;;;3.85;;
61617;SDS011;47518;51.776;9.370;2023-06-14T05:20:51;5.72;;;4.20;;
61617;SDS011;47518;51.776;9.370;2023-06-14T05:23:16;7.18;;;3.78;;
61617;SDS011;47518;51.776;9.370;2023-06-14T05:25:42;3.95;;;3.63;;
61617;SDS011;47518;51.776;9.370;2023-06-14T05:28:09;5.25;;;3.63;;
61617;SDS011;47518;51.776;9.370;2023-06-14T05:30:43;8.65;;;3.80;;
61617;SDS011;47518;51.776;9.370;2023-06-14T05:33:09;6.30;;;3.40;;
61617;SDS011;47518;51.776;9.370;2023-06-14T05:35:43;3.95;;;3.58;;
61617;SDS011;47518;51.776;9.370;2023-06-14T05:40:40;10.02;;;3.90;;
61617;SDS011;47518;51.776;9.370;2023-06-14T05:43:13;6.97;;;3.88;;
61617;SDS011;47518;51.776;9.370;2023-06-14T05:45:40;4.10;;;3.80;;
61617;SDS011;47518;51.776;9.370;2023-06-14T05:48:05;7.40;;;3.70;;
61617;SDS011;47518;51.776;9.370;2023-06-14T05:50:31;4.57;;;3.88;;
61617;SDS011;47518;51.776;9.370;2023-06-14T05:52:56;4.43;;;3.88;;
61617;SDS011;47518;51.776;9.370;2023-06-14T05:55:22;9.60;;;4.00;;
61617;SDS011;47518;51.776;9.370;2023-06-14T05:57:47;4.47;;;4.03;;
61617;SDS011;47518;51.776;9.370;2023-06-14T06:00:13;8.55;;;4.00;;
61617;SDS011;47518;51.776;9.370;2023-06-14T06:02:43;5.20;;;3.75;;
61617;SDS011;47518;51.776;9.370;2023-06-14T06:05:18;7.25;;;3.40;;
61617;SDS011;47518;51.776;9.370;2023-06-14T06:07:54;3.72;;;3.38;;
61617;SDS011;47518;51.776;9.370;2023-06-14T06:25:22;8.35;;;3.55;;
61617;SDS011;47518;51.776;9.370;2023-06-14T06:28:08;5.57;;;3.20;;
61617;SDS011;47518;51.776;9.370;2023-06-14T06:30:40;8.15;;;3.55;;
61617;SDS011;47518;51.776;9.370;2023-06-14T06:33:09;7.50;;;3.70;;
61617;SDS011;47518;51.776;9.370;2023-06-14T06:35:44;3.70;;;3.40;;
61617;SDS011;47518;51.776;9.370;2023-06-14T06:38:10;6.97;;;3.67;;
61617;SDS011;47518;51.776;9.370;2023-06-14T06:40:41;3.78;;;3.55;;
61617;SDS011;47518;51.776;9.370;2023-06-14T06:43:09;3.95;;;3.67;;
61617;SDS011;47518;51.776;9.370;2023-06-14T06:45:40;4.40;;;3.60;;
61617;SDS011;47518;51.776;9.370;2023-06-14T06:48:08;4.20;;;3.80;;
61617;SDS011;47518;51.776;9.370;2023-06-14T06:50:35;7.45;;;3.60;;
61617;SDS011;47518;51.776;9.370;2023-06-14T06:53:10;4.10;;;3.70;;
61617;SDS011;47518;51.776;9.370;2023-06-14T06:55:35;4.10;;;3.80;;
61617;SDS011;47518;51.776;9.370;2023-06-14T06:58:04;4.32;;;3.95;;
61617;SDS011;47518;51.776;9.370;2023-06-14T07:00:30;4.75;;;3.97;;
61617;SDS011;47518;51.776;9.370;2023-06-14T07:03:06;6.10;;;3.88;;
61617;SDS011;47518;51.776;9.370;2023-06-14T07:05:52;7.60;;;4.40;;
61617;SDS011;47518;51.776;9.370;2023-06-14T07:08:17;4.90;;;4.45;;
61617;SDS011;47518;51.776;9.370;2023-06-14T07:10:57;4.40;;;3.90;;
61617;SDS011;47518;51.776;9.370;2023-06-14T07:13:30;4.97;;;4.57;;
61617;SDS011;47518;51.776;9.370;2023-06-14T07:15:59;4.75;;;4.40;;
61617;SDS011;47518;51.776;9.370;2023-06-14T07:18:38;11.82;;;4.50;;
61617;SDS011;47518;51.776;9.370;2023-06-14T07:21:06;12.52;;;5.00;;
61617;SDS011;47518;51.776;9.370;2023-06-14T07:23:50;7.95;;;5.07;;
61617;SDS011;47518;51.776;9.370;2023-06-14T07:26:24;11.95;;;4.70;;
61617;SDS011;47518;51.776;9.370;2023-06-14T07:28:50;5.18;;;4.50;;
61617;SDS011;47518;51.776;9.370;2023-06-14T07:31:16;4.90;;;4.30;;
61617;SDS011;47518;51.776;9.370;2023-06-14T07:33:51;5.03;;;4.63;;
61617;SDS011;47518;51.776;9.370;2023-06-14T07:36:18;4.72;;;4.32;;
61617;SDS011;47518;51.776;9.370;2023-06-14T07:38:53;4.55;;;4.15;;
61617;SDS011;47518;51.776;9.370;2023-06-14T07:41:42;4.80;;;4.25;;
61617;SDS011;47518;51.776;9.370;2023-06-14T07:44:19;5.53;;;4.55;;
61617;SDS011;47518;51.776;9.370;2023-06-14T07:46:45;4.90;;;4.38;;
61617;SDS011;47518;51.776;9.370;2023-06-14T07:49:14;6.47;;;4.53;;
61617;SDS011;47518;51.776;9.370;2023-06-14T07:51:45;4.57;;;4.28;;
61617;SDS011;47518;51.776;9.370;2023-06-14T07:54:11;5.15;;;4.70;;
61617;SDS011;47518;51.776;9.370;2023-06-14T07:56:41;6.07;;;4.50;;
61617;SDS011;47518;51.776;9.370;2023-06-14T07:59:13;6.55;;;4.30;;
61617;SDS011;47518;51.776;9.370;2023-06-14T08:01:42;4.65;;;4.18;;
61617;SDS011;47518;51.776;9.370;2023-06-14T08:04:15;4.65;;;4.25;;
61617;SDS011;47518;51.776;9.370;2023-06-14T08:09:44;4.40;;;4.10;;
61617;SDS011;47518;51.776;9.370;2023-06-14T08:12:11;5.70;;;4.30;;
61617;SDS011;47518;51.776;9.370;2023-06-14T08:17:27;4.40;;;4.10;;
61617;SDS011;47518;51.776;9.370;2023-06-14T08:19:52;4.72;;;4.30;;
61617;SDS011;47518;51.776;9.370;2023-06-14T08:22:24;5.28;;;4.30;;
61617;SDS011;47518;51.776;9.370;2023-06-14T08:24:53;7.78;;;4.47;;
61617;SDS011;47518;51.776;9.370;2023-06-14T08:27:35;8.48;;;4.68;;
61617;SDS011;47518;51.776;9.370;2023-06-14T08:30:01;5.32;;;4.20;;
61617;SDS011;47518;51.776;9.370;2023-06-14T08:32:38;6.75;;;4.30;;
61617;SDS011;47518;51.776;9.370;2023-06-14T08:35:17;5.45;;;4.35;;
61617;SDS011;47518;51.776;9.370;2023-06-14T08:37:43;4.68;;;4.35;;
61617;SDS011;47518;51.776;9.370;2023-06-14T08:40:20;4.60;;;4.20;;
61617;SDS011;47518;51.776;9.370;2023-06-14T08:43:17;6.88;;;4.10;;
61617;SDS011;47518;51.776;9.370;2023-06-14T08:46:03;5.32;;;4.38;;
61617;SDS011;47518;51.776;9.370;2023-06-14T08:48:35;4.32;;;3.85;;
61617;SDS011;47518;51.776;9.370;2023-06-14T08:51:18;4.45;;;4.15;;
61617;SDS011;47518;51.776;9.370;2023-06-14T08:54:03;4.78;;;4.03;;
61617;SDS011;47518;51.776;9.370;2023-06-14T08:56:35;4.32;;;3.92;;
61617;SDS011;47518;51.776;9.370;2023-06-14T09:08:03;4.63;;;4.18;;
61617;SDS011;47518;51.776;9.370;2023-06-14T09:10:30;5.80;;;4.05;;
61617;SDS011;47518;51.776;9.370;2023-06-14T09:13:08;4.97;;;4.30;;
61617;SDS011;47518;51.776;9.370;2023-06-14T09:15:34;7.40;;;4.28;;
61617;SDS011;47518;51.776;9.370;2023-06-14T09:18:01;7.22;;;4.13;;
61617;SDS011;47518;51.776;9.370;2023-06-14T09:20:29;5.40;;;4.03;;
61617;SDS011;47518;51.776;9.370;2023-06-14T09:22:56;5.60;;;4.10;;
61617;SDS011;47518;51.776;9.370;2023-06-14T09:25:22;5.32;;;4.07;;
61617;SDS011;47518;51.776;9.370;2023-06-14T09:27:51;4.65;;;4.15;;
61617;SDS011;47518;51.776;9.370;2023-06-14T09:30:25;4.57;;;3.90;;
61617;SDS011;47518;51.776;9.370;2023-06-14T09:32:58;4.30;;;4.00;;
61617;SDS011;47518;51.776;9.370;2023-06-14T09:35:24;5.35;;;4.18;;
61617;SDS011;47518;51.776;9.370;2023-06-14T09:37:49;4.20;;;3.90;;
61617;SDS011;47518;51.776;9.370;2023-06-14T09:40:23;5.63;;;4.20;;
61617;SDS011;47518;51.776;9.370;2023-06-14T09:42:52;6.10;;;4.20;;
61617;SDS011;47518;51.776;9.370;2023-06-14T09:45:20;4.80;;;4.20;;
61617;SDS011;47518;51.776;9.370;2023-06-14T09:47:49;4.40;;;4.10;;
61617;SDS011;47518;51.776;9.370;2023-06-14T09:50:15;6.07;;;4.43;;
61617;SDS011;47518;51.776;9.370;2023-06-14T09:52:43;4.72;;;4.32;;
61617;SDS011;47518;51.776;9.370;2023-06-14T09:55:16;4.80;;;4.38;;
61617;SDS011;47518;51.776;9.370;2023-06-14T09:57:45;6.32;;;4.20;;
61617;SDS011;47518;51.776;9.370;2023-06-14T10:00:13;4.90;;;4.50;;
61617;SDS011;47518;51.776;9.370;2023-06-14T10:02:40;4.68;;;4.35;;
61617;SDS011;47518;51.776;9.370;2023-06-14T10:08:00;4.68;;;4.28;;
61617;SDS011;47518;51.776;9.370;2023-06-14T10:10:32;4.32;;;4.13;;
61617;SDS011;47518;51.776;9.370;2023-06-14T10:13:04;6.03;;;4.47;;
61617;SDS011;47518;51.776;9.370;2023-06-14T10:15:35;7.47;;;4.10;;
61617;SDS011;47518;51.776;9.370;2023-06-14T10:18:10;4.40;;;4.00;;
61617;SDS011;47518;51.776;9.370;2023-06-14T10:20:50;4.30;;;3.88;;
61617;SDS011;47518;51.776;9.370;2023-06-14T10:33:59;4.35;;;4.00;;
61617;SDS011;47518;51.776;9.370;2023-06-14T10:36:26;4.40;;;4.10;;
61617;SDS011;47518;51.776;9.370;2023-06-14T10:41:50;4.70;;;3.85;;
61617;SDS011;47518;51.776;9.370;2023-06-14T10:47:48;4.00;;;3.70;;
61617;SDS011;47518;51.776;9.370;2023-06-14T10:50:17;3.85;;;3.63;;
61617;SDS011;47518;51.776;9.370;2023-06-14T10:52:44;3.65;;;3.38;;
61617;SDS011;47518;51.776;9.370;2023-06-14T10:55:13;3.88;;;3.58;;
61617;SDS011;47518;51.776;9.370;2023-06-14T10:57:48;5.60;;;3.50;;
61617;SDS011;47518;51.776;9.370;2023-06-14T11:05:58;4.30;;;3.80;;
61617;SDS011;47518;51.776;9.370;2023-06-14T11:21:51;3.80;;;3.50;;
61617;SDS011;47518;51.776;9.370;2023-06-14T11:24:16;3.80;;;3.50;;
61617;SDS011;47518;51.776;9.370;2023-06-14T11:26:42;3.83;;;3.50;;
61617;SDS011;47518;51.776;9.370;2023-06-14T11:29:08;6.22;;;3.80;;
61617;SDS011;47518;51.776;9.370;2023-06-14T11:31:34;6.10;;;3.90;;
61617;SDS011;47518;51.776;9.370;2023-06-14T11:34:00;3.80;;;3.60;;
61617;SDS011;47518;51.776;9.370;2023-06-14T11:36:31;4.13;;;3.70;;
61617;SDS011;47518;51.776;9.370;2023-06-14T11:39:03;5.07;;;3.83;;
61617;SDS011;47518;51.776;9.370;2023-06-14T11:41:33;3.70;;;3.40;;
61617;SDS011;47518;51.776;9.370;2023-06-14T11:44:17;3.75;;;3.42;;
61617;SDS011;47518;51.776;9.370;2023-06-14T11:46:45;3.90;;;3.50;;
61617;SDS011;47518;51.776;9.370;2023-06-14T11:49:10;5.68;;;3.60;;
61617;SDS011;47518;51.776;9.370;2023-06-14T11:51:36;4.25;;;3.70;;
61617;SDS011;47518;51.776;9.370;2023-06-14T11:54:02;4.03;;;3.72;;
61617;SDS011;47518;51.776;9.370;2023-06-14T11:56:29;7.82;;;3.42;;
61617;SDS011;47518;51.776;9.370;2023-06-14T11:58:55;4.22;;;3.80;;
61617;SDS011;47518;51.776;9.370;2023-06-14T12:01:22;6.10;;;3.97;;
61617;SDS011;47518;51.776;9.370;2023-06-14T12:03:48;4.07;;;3.78;;
61617;SDS011;47518;51.776;9.370;2023-06-14T12:06:15;5.28;;;3.80;;
61617;SDS011;47518;51.776;9.370;2023-06-14T12:08:43;4.18;;;3.80;;
61617;SDS011;47518;51.776;9.370;2023-06-14T12:11:11;4.30;;;4.00;;
61617;SDS011;47518;51.776;9.370;2023-06-14T12:13:39;4.03;;;3.50;;
61617;SDS011;47518;51.776;9.370;2023-06-14T12:16:09;3.95;;;3.65;;
61617;SDS011;47518;51.776;9.370;2023-06-14T12:18:37;7.15;;;3.53;;
61617;SDS011;47518;51.776;9.370;2023-06-14T12:21:06;5.28;;;4.10;;
61617;SDS011;47518;51.776;9.370;2023-06-14T12:23:42;5.05;;;3.72;;
61617;SDS011;47518;51.776;9.370;2023-06-14T12:26:08;4.35;;;3.60;;
61617;SDS011;47518;51.776;9.370;2023-06-14T12:28:33;4.40;;;4.00;;
61617;SDS011;47518;51.776;9.370;2023-06-14T12:30:58;4.00;;;3.70;;
61617;SDS011;47518;51.776;9.370;2023-06-14T12:33:24;3.97;;;3.58;;
61617;SDS011;47518;51.776;9.370;2023-06-14T12:35:50;4.18;;;3.88;;
61617;SDS011;47518;51.776;9.370;2023-06-14T12:38:16;3.88;;;3.50;;
61617;SDS011;47518;51.776;9.370;2023-06-14T12:40:44;3.80;;;3.60;;
61617;SDS011;47518;51.776;9.370;2023-06-14T12:43:10;5.82;;;3.63;;
61617;SDS011;47518;51.776;9.370;2023-06-14T12:45:35;42.10;;;5.55;;
61617;SDS011;47518;51.776;9.370;2023-06-14T12:48:04;115.82;;;10.32;;
61617;SDS011;47518;51.776;9.370;2023-06-14T12:50:29;41.47;;;6.15;;
61617;SDS011;47518;51.776;9.370;2023-06-14T12:52:55;24.90;;;4.80;;
61617;SDS011;47518;51.776;9.370;2023-06-14T12:55:21;15.98;;;3.60;;
61617;SDS011;47518;51.776;9.370;2023-06-14T12:57:46;115.05;;;9.27;;
61617;SDS011;47518;51.776;9.370;2023-06-14T13:00:14;13.32;;;3.80;;
61617;SDS011;47518;51.776;9.370;2023-06-14T13:02:40;6.72;;;3.90;;
61617;SDS011;47518;51.776;9.370;2023-06-14T13:05:05;3.72;;;3.53;;
61617;SDS011;47518;51.776;9.370;2023-06-14T13:07:32;3.75;;;3.40;;
61617;SDS011;47518;51.776;9.370;2023-06-14T13:09:57;3.95;;;3.08;;
61617;SDS011;47518;51.776;9.370;2023-06-14T13:12:22;3.83;;;3.53;;
61617;SDS011;47518;51.776;9.370;2023-06-14T13:14:48;3.58;;;3.28;;
61617;SDS011;47518;51.776;9.370;2023-06-14T13:17:14;4.88;;;3.30;;
61617;SDS011;47518;51.776;9.370;2023-06-14T13:19:40;4.18;;;3.70;;
61617;SDS011;47518;51.776;9.370;2023-06-14T13:22:07;5.40;;;3.10;;
61617;SDS011;47518;51.776;9.370;2023-06-14T13:24:33;3.80;;;3.50;;
61617;SDS011;47518;51.776;9.370;2023-06-14T13:26:59;5.10;;;3.67;;
61617;SDS011;47518;51.776;9.370;2023-06-14T13:29:25;3.85;;;3.63;;
61617;SDS011;47518;51.776;9.370;2023-06-14T13:31:51;3.78;;;3.42;;
61617;SDS011;47518;51.776;9.370;2023-06-14T13:34:17;3.58;;;3.38;;
61617;SDS011;47518;51.776;9.370;2023-06-14T13:36:43;3.80;;;3.50;;
61617;SDS011;47518;51.776;9.370;2023-06-14T13:39:08;5.75;;;3.47;;
61617;SDS011;47518;51.776;9.370;2023-06-14T13:41:35;4.38;;;3.42;;
61617;SDS011;47518;51.776;9.370;2023-06-14T13:44:00;4.25;;;3.85;;
61617;SDS011;47518;51.776;9.370;2023-06-14T13:46:31;5.32;;;3.55;;
61617;SDS011;47518;51.776;9.370;2023-06-14T13:48:57;3.55;;;3.25;;
61617;SDS011;47518;51.776;9.370;2023-06-14T13:51:23;5.57;;;3.80;;
61617;SDS011;47518;51.776;9.370;2023-06-14T13:53:48;5.90;;;3.90;;
61617;SDS011;47518;51.776;9.370;2023-06-14T13:56:16;4.40;;;3.60;;
61617;SDS011;47518;51.776;9.370;2023-06-14T13:58:44;3.75;;;3.40;;
61617;SDS011;47518;51.776;9.370;2023-06-14T14:01:10;3.60;;;3.40;;
61617;SDS011;47518;51.776;9.370;2023-06-14T14:03:36;4.18;;;3.53;;
61617;SDS011;47518;51.776;9.370;2023-06-14T14:06:03;6.63;;;6.03;;
61617;SDS011;47518;51.776;9.370;2023-06-14T14:08:32;4.22;;;3.83;;
61617;SDS011;47518;51.776;9.370;2023-06-14T14:11:01;4.40;;;3.78;;
61617;SDS011;47518;51.776;9.370;2023-06-14T14:13:29;3.88;;;3.58;;
61617;SDS011;47518;51.776;9.370;2023-06-14T14:15:54;4.22;;;3.83;;
61617;SDS011;47518;51.776;9.370;2023-06-14T14:18:20;4.40;;;3.60;;
61617;SDS011;47518;51.776;9.370;2023-06-14T14:20:46;6.75;;;4.28;;
61617;SDS011;47518;51.776;9.370;2023-06-14T14:23:14;5.03;;;4.10;;
61617;SDS011;47518;51.776;9.370;2023-06-14T14:25:39;4.88;;;3.85;;
61617;SDS011;47518;51.776;9.370;2023-06-14T14:28:05;4.50;;;4.10;;
61617;SDS011;47518;51.776;9.370;2023-06-14T14:30:30;4.50;;;4.00;;
61617;SDS011;47518;51.776;9.370;2023-06-14T14:32:56;4.30;;;4.00;;
61617;SDS011;47518;51.776;9.370;2023-06-14T14:35:28;4.20;;;3.90;;
61617;SDS011;47518;51.776;9.370;2023-06-14T14:37:55;5.40;;;3.92;;
61617;SDS011;47518;51.776;9.370;2023-06-14T14:40:21;4.40;;;4.00;;
61617;SDS011;47518;51.776;9.370;2023-06-14T14:42:46;4.82;;;3.85;;
61617;SDS011;47518;51.776;9.370;2023-06-14T14:45:12;4.20;;;3.80;;
61617;SDS011;47518;51.776;9.370;2023-06-14T14:47:37;5.30;;;4.00;;
61617;SDS011;47518;51.776;9.370;2023-06-14T14:50:06;4.65;;;4.00;;
61617;SDS011;47518;51.776;9.370;2023-06-14T14:52:34;8.10;;;4.20;;
61617;SDS011;47518;51.776;9.370;2023-06-14T14:55:00;5.72;;;4.10;;
61617;SDS011;47518;51.776;9.370;2023-06-14T14:57:26;4.50;;;4.10;;
61617;SDS011;47518;51.776;9.370;2023-06-14T14:59:55;8.80;;;4.40;;
61617;SDS011;47518;51.776;9.370;2023-06-14T15:02:20;7.80;;;4.22;;
61617;SDS011;47518;51.776;9.370;2023-06-14T15:04:46;4.75;;;4.18;;
61617;SDS011;47518;51.776;9.370;2023-06-14T15:07:11;4.78;;;4.38;;
61617;SDS011;47518;51.776;9.370;2023-06-14T15:09:37;4.55;;;4.00;;
61617;SDS011;47518;51.776;9.370;2023-06-14T15:12:03;4.47;;;4.07;;
61617;SDS011;47518;51.776;9.370;2023-06-14T15:14:29;4.40;;;4.00;;
61617;SDS011;47518;51.776;9.370;2023-06-14T15:16:54;4.40;;;4.00;;
61617;SDS011;47518;51.776;9.370;2023-06-14T15:19:19;4.28;;;3.97;;
61617;SDS011;47518;51.776;9.370;2023-06-14T15:21:45;5.03;;;4.47;;
61617;SDS011;47518;51.776;9.370;2023-06-14T15:24:10;6.70;;;4.40;;
61617;SDS011;47518;51.776;9.370;2023-06-14T15:26:38;6.97;;;4.10;;
61617;SDS011;47518;51.776;9.370;2023-06-14T15:29:04;4.95;;;4.10;;
61617;SDS011;47518;51.776;9.370;2023-06-14T15:31:30;7.75;;;4.38;;
61617;SDS011;47518;51.776;9.370;2023-06-14T15:33:55;5.38;;;4.15;;
61617;SDS011;47518;51.776;9.370;2023-06-14T15:36:20;5.05;;;4.25;;
61617;SDS011;47518;51.776;9.370;2023-06-14T15:38:46;4.47;;;4.15;;
61617;SDS011;47518;51.776;9.370;2023-06-14T15:41:11;6.82;;;4.25;;
61617;SDS011;47518;51.776;9.370;2023-06-14T15:43:37;4.72;;;4.32;;
61617;SDS011;47518;51.776;9.370;2023-06-14T15:46:02;4.22;;;3.85;;
61617;SDS011;47518;51.776;9.370;2023-06-14T15:48:27;5.80;;;4.30;;
61617;SDS011;47518;51.776;9.370;2023-06-14T15:50:53;4.50;;;4.10;;
61617;SDS011;47518;51.776;9.370;2023-06-14T15:53:19;4.97;;;4.50;;
61617;SDS011;47518;51.776;9.370;2023-06-14T15:55:45;4.10;;;3.80;;
61617;SDS011;47518;51.776;9.370;2023-06-14T15:58:11;9.73;;;4.22;;
61617;SDS011;47518;51.776;9.370;2023-06-14T16:00:36;5.13;;;4.10;;
61617;SDS011;47518;51.776;9.370;2023-06-14T16:03:01;5.93;;;4.30;;
61617;SDS011;47518;51.776;9.370;2023-06-14T16:05:27;4.90;;;3.65;;
61617;SDS011;47518;51.776;9.370;2023-06-14T16:07:53;4.53;;;4.05;;
61617;SDS011;47518;51.776;9.370;2023-06-14T16:10:18;7.68;;;6.78;;